sensor_id;sensor_type;location;lat;lon;timestamp;pressure;altitude;pressure_sealevel;temperature;humidity
13434;BME280;6789;47.678;9.158;2023-10-09T00:00:17;97526.50;;;12.70;100.00
13434;BME280;6789;47.678;9.158;2023-10-09T00:05:35;97525.34;;;12.84;100.00
13434;BME280;6789;47.678;9.158;2023-10-09T00:10:36;97525.31;;;13.08;100.00
13434;BME280;6789;47.678;9.158;2023-10-09T00:15:37;97527.94;;;12.90;100.00
13434;BME280;6789;47.678;9.158;2023-10-09T00:20:36;97519.78;;;12.74;100.00
13434;BME280;6789;47.678;9.158;2023-10-09T00:25:34;97530.03;;;12.82;100.00
13434;BME280;6789;47.678;9.158;2023-10-09T00:30:40;97524.16;;;12.80;100.00
13434;BME280;6789;47.678;9.158;2023-10-09T00:35:37;97517.41;;;12.66;100.00
13434;BME280;6789;47.678;9.158;2023-10-09T00:40:38;97505.38;;;12.59;100.00
13434;BME280;6789;47.678;9.158;2023-10-09T00:45:38;97504.03;;;12.50;100.00
13434;BME280;6789;47.678;9.158;2023-10-09T00:50:34;97503.72;;;12.40;100.00
13434;BME280;6789;47.678;9.158;2023-10-09T00:55:31;97505.44;;;12.28;100.00
13434;BME280;6789;47.678;9.158;2023-10-09T01:00:35;97499.03;;;12.24;100.00
13434;BME280;6789;47.678;9.158;2023-10-09T01:05:37;97490.28;;;12.30;100.00
13434;BME280;6789;47.678;9.158;2023-10-09T01:10:47;97491.28;;;12.29;100.00
13434;BME280;6789;47.678;9.158;2023-10-09T01:15:48;97481.41;;;12.24;100.00
13434;BME280;6789;47.678;9.158;2023-10-09T01:20:40;97477.38;;;12.22;100.00
13434;BME280;6789;47.678;9.158;2023-10-09T01:25:37;97475.16;;;12.19;100.00
13434;BME280;6789;47.678;9.158;2023-10-09T01:30:37;97472.06;;;12.28;100.00
13434;BME280;6789;47.678;9.158;2023-10-09T01:35:33;97475.94;;;12.44;100.00
13434;BME280;6789;47.678;9.158;2023-10-09T01:40:26;97470.31;;;12.40;100.00
13434;BME280;6789;47.678;9.158;2023-10-09T01:45:29;97462.03;;;12.19;100.00
13434;BME280;6789;47.678;9.158;2023-10-09T01:50:30;97451.63;;;12.06;100.00
13434;BME280;6789;47.678;9.158;2023-10-09T01:55:27;97450.28;;;11.97;100.00
13434;BME280;6789;47.678;9.158;2023-10-09T02:00:27;97452.31;;;11.95;100.00
13434;BME280;6789;47.678;9.158;2023-10-09T02:05:21;97448.94;;;11.88;100.00
13434;BME280;6789;47.678;9.158;2023-10-09T02:10:14;97448.56;;;11.85;100.00
13434;BME280;6789;47.678;9.158;2023-10-09T02:15:18;97452.66;;;11.81;100.00
13434;BME280;6789;47.678;9.158;2023-10-09T02:20:30;97445.22;;;11.78;100.00
13434;BME280;6789;47.678;9.158;2023-10-09T02:25:24;97449.88;;;11.76;100.00
13434;BME280;6789;47.678;9.158;2023-10-09T02:30:20;97452.91;;;11.73;100.00
13434;BME280;6789;47.678;9.158;2023-10-09T02:35:19;97447.88;;;11.71;100.00
13434;BME280;6789;47.678;9.158;2023-10-09T02:40:29;97445.69;;;11.68;100.00
13434;BME280;6789;47.678;9.158;2023-10-09T02:45:25;97441.22;;;11.69;100.00
13434;BME280;6789;47.678;9.158;2023-10-09T02:50:21;97441.06;;;11.64;100.00
13434;BME280;6789;47.678;9.158;2023-10-09T02:55:15;97434.59;;;11.60;100.00
13434;BME280;6789;47.678;9.158;2023-10-09T03:00:17;97430.00;;;11.49;100.00
13434;BME280;6789;47.678;9.158;2023-10-09T03:05:21;97435.09;;;11.44;100.00
13434;BME280;6789;47.678;9.158;2023-10-09T03:10:12;97428.44;;;11.41;100.00
13434;BME280;6789;47.678;9.158;2023-10-09T03:15:05;97442.13;;;11.50;100.00
13434;BME280;6789;47.678;9.158;2023-10-09T03:20:07;97426.84;;;11.40;100.00
13434;BME280;6789;47.678;9.158;2023-10-09T03:25:05;97426.63;;;11.42;100.00
13434;BME280;6789;47.678;9.158;2023-10-09T03:30:08;97426.81;;;11.47;100.00
13434;BME280;6789;47.678;9.158;2023-10-09T03:35:02;97410.81;;;11.55;100.00
13434;BME280;6789;47.678;9.158;2023-10-09T03:39:58;97411.63;;;11.80;100.00
13434;BME280;6789;47.678;9.158;2023-10-09T03:45:05;97415.75;;;11.94;100.00
13434;BME280;6789;47.678;9.158;2023-10-09T03:50:09;97412.03;;;12.01;100.00
13434;BME280;6789;47.678;9.158;2023-10-09T03:55:19;97403.72;;;12.04;100.00
13434;BME280;6789;47.678;9.158;2023-10-09T04:00:29;97405.34;;;12.05;100.00
13434;BME280;6789;47.678;9.158;2023-10-09T04:05:22;97392.75;;;12.07;100.00
13434;BME280;6789;47.678;9.158;2023-10-09T04:10:14;97388.97;;;12.03;100.00
13434;BME280;6789;47.678;9.158;2023-10-09T04:15:34;97377.13;;;11.94;100.00
13434;BME280;6789;47.678;9.158;2023-10-09T04:20:28;97381.81;;;11.92;100.00
13434;BME280;6789;47.678;9.158;2023-10-09T04:25:22;97380.59;;;11.88;100.00
13434;BME280;6789;47.678;9.158;2023-10-09T04:30:17;97375.81;;;11.85;100.00
13434;BME280;6789;47.678;9.158;2023-10-09T04:35:11;97370.66;;;11.97;100.00
13434;BME280;6789;47.678;9.158;2023-10-09T04:40:16;97371.97;;;12.06;100.00
13434;BME280;6789;47.678;9.158;2023-10-09T04:45:27;97361.81;;;12.09;100.00
13434;BME280;6789;47.678;9.158;2023-10-09T04:50:51;97359.66;;;12.24;100.00
13434;BME280;6789;47.678;9.158;2023-10-09T04:56:01;97357.81;;;12.24;100.00
13434;BME280;6789;47.678;9.158;2023-10-09T05:00:56;97359.78;;;12.29;100.00
13434;BME280;6789;47.678;9.158;2023-10-09T05:05:51;97361.16;;;12.31;100.00
13434;BME280;6789;47.678;9.158;2023-10-09T05:10:54;97363.56;;;12.33;100.00
13434;BME280;6789;47.678;9.158;2023-10-09T05:16:03;97355.81;;;12.38;100.00
13434;BME280;6789;47.678;9.158;2023-10-09T05:20:55;97360.06;;;12.39;100.00
13434;BME280;6789;47.678;9.158;2023-10-09T05:25:49;97363.88;;;12.43;100.00
13434;BME280;6789;47.678;9.158;2023-10-09T05:30:52;97363.56;;;12.51;100.00
13434;BME280;6789;47.678;9.158;2023-10-09T05:36:21;97372.47;;;12.50;100.00
13434;BME280;6789;47.678;9.158;2023-10-09T05:41:16;97378.41;;;12.45;100.00
13434;BME280;6789;47.678;9.158;2023-10-09T05:46:38;97388.06;;;12.51;100.00
13434;BME280;6789;47.678;9.158;2023-10-09T05:51:40;97395.97;;;12.51;100.00
13434;BME280;6789;47.678;9.158;2023-10-09T05:56:49;97402.66;;;12.47;100.00
13434;BME280;6789;47.678;9.158;2023-10-09T06:02:01;97398.13;;;12.54;100.00
13434;BME280;6789;47.678;9.158;2023-10-09T06:06:53;97385.66;;;12.68;100.00
13434;BME280;6789;47.678;9.158;2023-10-09T06:11:49;97384.16;;;12.89;100.00
13434;BME280;6789;47.678;9.158;2023-10-09T06:16:42;97372.75;;;12.95;100.00
13434;BME280;6789;47.678;9.158;2023-10-09T06:22:07;97377.75;;;13.15;100.00
13434;BME280;6789;47.678;9.158;2023-10-09T06:27:18;97391.97;;;13.25;100.00
13434;BME280;6789;47.678;9.158;2023-10-09T06:32:22;97387.09;;;13.40;100.00
13434;BME280;6789;47.678;9.158;2023-10-09T06:38:00;97402.13;;;13.51;100.00
13434;BME280;6789;47.678;9.158;2023-10-09T06:42:55;97415.44;;;13.45;100.00
13434;BME280;6789;47.678;9.158;2023-10-09T06:47:50;97422.88;;;13.48;100.00
13434;BME280;6789;47.678;9.158;2023-10-09T06:52:49;97430.09;;;13.52;100.00
13434;BME280;6789;47.678;9.158;2023-10-09T06:58:18;97446.97;;;13.62;100.00
13434;BME280;6789;47.678;9.158;2023-10-09T07:03:20;97451.31;;;13.57;100.00
13434;BME280;6789;47.678;9.158;2023-10-09T07:08:38;97441.88;;;13.79;100.00
13434;BME280;6789;47.678;9.158;2023-10-09T07:13:30;97455.06;;;14.02;100.00
13434;BME280;6789;47.678;9.158;2023-10-09T07:18:28;97458.66;;;14.19;100.00
13434;BME280;6789;47.678;9.158;2023-10-09T07:23:41;97474.53;;;14.30;100.00
13434;BME280;6789;47.678;9.158;2023-10-09T07:28:41;97492.53;;;14.44;100.00
13434;BME280;6789;47.678;9.158;2023-10-09T07:33:55;97502.97;;;14.62;100.00
13434;BME280;6789;47.678;9.158;2023-10-09T07:38:55;97516.41;;;14.72;100.00
13434;BME280;6789;47.678;9.158;2023-10-09T07:44:01;97506.00;;;15.16;100.00
13434;BME280;6789;47.678;9.158;2023-10-09T07:49:24;97510.38;;;15.62;100.00
13434;BME280;6789;47.678;9.158;2023-10-09T07:54:43;97505.63;;;15.91;100.00
13434;BME280;6789;47.678;9.158;2023-10-09T08:00:06;97502.44;;;16.22;100.00
13434;BME280;6789;47.678;9.158;2023-10-09T08:05:30;97507.63;;;16.61;100.00
13434;BME280;6789;47.678;9.158;2023-10-09T08:10:39;97518.31;;;16.88;100.00
13434;BME280;6789;47.678;9.158;2023-10-09T08:15:57;97526.06;;;17.11;95.61
13434;BME280;6789;47.678;9.158;2023-10-09T08:21:02;97530.13;;;17.18;96.46
13434;BME280;6789;47.678;9.158;2023-10-09T08:26:18;97523.19;;;17.33;94.71
13434;BME280;6789;47.678;9.158;2023-10-09T08:31:54;97528.56;;;17.60;91.84
13434;BME280;6789;47.678;9.158;2023-10-09T08:37:27;97537.53;;;18.06;87.74
13434;BME280;6789;47.678;9.158;2023-10-09T08:42:31;97537.63;;;18.38;85.97
13434;BME280;6789;47.678;9.158;2023-10-09T08:47:25;97551.09;;;18.63;81.88
13434;BME280;6789;47.678;9.158;2023-10-09T08:52:31;97542.19;;;18.83;80.35
13434;BME280;6789;47.678;9.158;2023-10-09T08:57:39;97527.25;;;19.09;79.42
13434;BME280;6789;47.678;9.158;2023-10-09T09:02:53;97533.00;;;19.42;78.01
13434;BME280;6789;47.678;9.158;2023-10-09T09:07:48;97524.56;;;19.65;76.82
13434;BME280;6789;47.678;9.158;2023-10-09T09:12:54;97526.25;;;20.01;74.78
13434;BME280;6789;47.678;9.158;2023-10-09T09:18:08;97523.38;;;20.37;76.45
13434;BME280;6789;47.678;9.158;2023-10-09T09:23:10;97521.53;;;20.67;75.38
13434;BME280;6789;47.678;9.158;2023-10-09T09:28:04;97516.16;;;21.02;73.82
13434;BME280;6789;47.678;9.158;2023-10-09T09:38:18;97515.44;;;21.64;70.15
13434;BME280;6789;47.678;9.158;2023-10-09T09:43:14;97513.03;;;21.63;69.96
13434;BME280;6789;47.678;9.158;2023-10-09T09:48:14;97511.09;;;21.78;69.64
13434;BME280;6789;47.678;9.158;2023-10-09T09:53:24;97516.47;;;21.68;68.28
13434;BME280;6789;47.678;9.158;2023-10-09T09:58:20;97516.78;;;21.62;69.91
13434;BME280;6789;47.678;9.158;2023-10-09T10:03:40;97522.69;;;21.54;69.29
13434;BME280;6789;47.678;9.158;2023-10-09T10:08:36;97519.81;;;21.36;70.44
13434;BME280;6789;47.678;9.158;2023-10-09T10:19:01;97518.81;;;21.07;70.74
13434;BME280;6789;47.678;9.158;2023-10-09T10:29:34;97511.28;;;21.29;70.50
13434;BME280;6789;47.678;9.158;2023-10-09T10:34:26;97512.59;;;21.36;70.08
13434;BME280;6789;47.678;9.158;2023-10-09T10:39:51;97504.53;;;21.51;69.41
13434;BME280;6789;47.678;9.158;2023-10-09T10:44:43;97505.28;;;21.66;69.03
13434;BME280;6789;47.678;9.158;2023-10-09T10:49:36;97509.25;;;21.74;68.55
13434;BME280;6789;47.678;9.158;2023-10-09T10:54:29;97512.31;;;21.96;68.61
13434;BME280;6789;47.678;9.158;2023-10-09T10:59:24;97501.94;;;22.27;67.80
13434;BME280;6789;47.678;9.158;2023-10-09T11:04:24;97492.53;;;22.40;67.84
13434;BME280;6789;47.678;9.158;2023-10-09T11:09:17;97501.47;;;22.59;67.08
13434;BME280;6789;47.678;9.158;2023-10-09T11:14:27;97503.84;;;22.60;66.68
13434;BME280;6789;47.678;9.158;2023-10-09T11:19:22;97489.63;;;22.65;66.22
13434;BME280;6789;47.678;9.158;2023-10-09T11:24:26;97495.00;;;22.31;66.53
13434;BME280;6789;47.678;9.158;2023-10-09T11:30:11;97501.16;;;22.60;66.11
13434;BME280;6789;47.678;9.158;2023-10-09T11:35:15;97490.38;;;22.70;65.31
13434;BME280;6789;47.678;9.158;2023-10-09T11:40:33;97489.59;;;22.70;65.29
13434;BME280;6789;47.678;9.158;2023-10-09T11:45:44;97470.94;;;22.88;65.86
13434;BME280;6789;47.678;9.158;2023-10-09T11:50:52;97472.59;;;22.84;65.14
13434;BME280;6789;47.678;9.158;2023-10-09T11:55:57;97467.06;;;23.04;65.00
13434;BME280;6789;47.678;9.158;2023-10-09T12:01:11;97460.50;;;23.15;65.16
13434;BME280;6789;47.678;9.158;2023-10-09T12:06:11;97460.25;;;23.35;65.80
13434;BME280;6789;47.678;9.158;2023-10-09T12:11:18;97450.00;;;23.18;64.84
13434;BME280;6789;47.678;9.158;2023-10-09T12:16:34;97432.88;;;23.38;64.50
13434;BME280;6789;47.678;9.158;2023-10-09T12:21:30;97432.03;;;23.42;64.42
13434;BME280;6789;47.678;9.158;2023-10-09T12:26:26;97433.13;;;23.41;62.90
13434;BME280;6789;47.678;9.158;2023-10-09T12:31:32;97438.44;;;23.46;60.90
13434;BME280;6789;47.678;9.158;2023-10-09T12:36:47;97436.00;;;23.45;60.38
13434;BME280;6789;47.678;9.158;2023-10-09T12:42:08;97432.19;;;23.32;59.50
13434;BME280;6789;47.678;9.158;2023-10-09T12:47:04;97434.41;;;23.25;59.35
13434;BME280;6789;47.678;9.158;2023-10-09T12:52:07;97434.31;;;23.12;59.89
13434;BME280;6789;47.678;9.158;2023-10-09T12:57:23;97426.78;;;22.91;60.99
13434;BME280;6789;47.678;9.158;2023-10-09T13:02:17;97413.03;;;22.74;62.15
13434;BME280;6789;47.678;9.158;2023-10-09T13:07:27;97417.25;;;22.80;61.43
13434;BME280;6789;47.678;9.158;2023-10-09T13:12:21;97404.97;;;22.79;60.77
13434;BME280;6789;47.678;9.158;2023-10-09T13:17:15;97398.88;;;22.73;61.40
13434;BME280;6789;47.678;9.158;2023-10-09T13:22:11;97395.19;;;22.69;61.94
13434;BME280;6789;47.678;9.158;2023-10-09T13:27:05;97394.19;;;22.60;62.31
13434;BME280;6789;47.678;9.158;2023-10-09T13:32:00;97388.66;;;22.52;62.17
13434;BME280;6789;47.678;9.158;2023-10-09T13:36:55;97385.06;;;22.38;63.59
13434;BME280;6789;47.678;9.158;2023-10-09T13:41:57;97384.09;;;22.29;64.09
13434;BME280;6789;47.678;9.158;2023-10-09T13:47:04;97390.28;;;22.20;68.54
13434;BME280;6789;47.678;9.158;2023-10-09T13:52:35;97385.38;;;21.98;66.99
13434;BME280;6789;47.678;9.158;2023-10-09T13:57:39;97368.13;;;21.86;71.43
13434;BME280;6789;47.678;9.158;2023-10-09T14:02:34;97360.47;;;21.74;73.34
13434;BME280;6789;47.678;9.158;2023-10-09T14:07:26;97364.06;;;21.60;74.98
13434;BME280;6789;47.678;9.158;2023-10-09T14:12:33;97351.44;;;21.22;75.91
13434;BME280;6789;47.678;9.158;2023-10-09T14:17:28;97347.91;;;20.83;74.53
13434;BME280;6789;47.678;9.158;2023-10-09T14:22:36;97337.63;;;20.37;77.00
13434;BME280;6789;47.678;9.158;2023-10-09T14:27:32;97336.09;;;20.16;79.54
13434;BME280;6789;47.678;9.158;2023-10-09T14:32:27;97344.91;;;20.02;80.21
13434;BME280;6789;47.678;9.158;2023-10-09T14:37:27;97340.88;;;20.14;78.56
13434;BME280;6789;47.678;9.158;2023-10-09T14:42:27;97345.13;;;20.25;78.26
13434;BME280;6789;47.678;9.158;2023-10-09T14:47:37;97347.28;;;20.08;78.05
13434;BME280;6789;47.678;9.158;2023-10-09T14:52:38;97341.72;;;20.15;77.17
13434;BME280;6789;47.678;9.158;2023-10-09T14:57:52;97340.31;;;20.32;75.57
13434;BME280;6789;47.678;9.158;2023-10-09T15:02:44;97337.06;;;20.55;74.92
13434;BME280;6789;47.678;9.158;2023-10-09T15:07:38;97347.41;;;20.77;73.65
13434;BME280;6789;47.678;9.158;2023-10-09T15:12:38;97355.16;;;20.78;73.34
13434;BME280;6789;47.678;9.158;2023-10-09T15:17:36;97355.13;;;20.83;72.54
13434;BME280;6789;47.678;9.158;2023-10-09T15:22:29;97348.16;;;20.87;72.21
13434;BME280;6789;47.678;9.158;2023-10-09T15:27:28;97354.56;;;20.91;71.73
13434;BME280;6789;47.678;9.158;2023-10-09T15:32:22;97350.34;;;20.80;71.08
13434;BME280;6789;47.678;9.158;2023-10-09T15:37:17;97355.16;;;20.78;71.82
13434;BME280;6789;47.678;9.158;2023-10-09T15:42:09;97346.88;;;20.80;72.24
13434;BME280;6789;47.678;9.158;2023-10-09T15:47:05;97343.41;;;20.79;72.02
13434;BME280;6789;47.678;9.158;2023-10-09T15:52:00;97328.03;;;20.46;71.88
13434;BME280;6789;47.678;9.158;2023-10-09T15:56:56;97323.81;;;20.25;71.80
13434;BME280;6789;47.678;9.158;2023-10-09T16:02:04;97326.53;;;20.10;73.73
13434;BME280;6789;47.678;9.158;2023-10-09T16:06:56;97325.47;;;20.02;74.63
13434;BME280;6789;47.678;9.158;2023-10-09T16:11:49;97326.81;;;19.94;75.32
13434;BME280;6789;47.678;9.158;2023-10-09T16:16:42;97322.00;;;19.81;75.55
13434;BME280;6789;47.678;9.158;2023-10-09T16:21:37;97318.81;;;19.74;75.73
13434;BME280;6789;47.678;9.158;2023-10-09T16:26:30;97322.25;;;19.65;76.36
13434;BME280;6789;47.678;9.158;2023-10-09T16:31:30;97312.69;;;19.54;77.11
13434;BME280;6789;47.678;9.158;2023-10-09T16:36:31;97325.72;;;19.45;79.13
13434;BME280;6789;47.678;9.158;2023-10-09T16:41:23;97325.97;;;19.34;81.19
13434;BME280;6789;47.678;9.158;2023-10-09T16:46:21;97324.38;;;19.23;81.85
13434;BME280;6789;47.678;9.158;2023-10-09T16:51:18;97326.47;;;19.21;85.84
13434;BME280;6789;47.678;9.158;2023-10-09T16:56:14;97328.81;;;19.08;87.32
13434;BME280;6789;47.678;9.158;2023-10-09T17:01:07;97328.75;;;18.88;89.19
13434;BME280;6789;47.678;9.158;2023-10-09T17:06:03;97323.63;;;18.66;90.14
13434;BME280;6789;47.678;9.158;2023-10-09T17:11:09;97322.00;;;18.56;91.32
13434;BME280;6789;47.678;9.158;2023-10-09T17:16:21;97333.31;;;18.36;92.74
13434;BME280;6789;47.678;9.158;2023-10-09T17:21:16;97332.38;;;18.16;93.71
13434;BME280;6789;47.678;9.158;2023-10-09T17:26:09;97333.09;;;18.01;94.65
13434;BME280;6789;47.678;9.158;2023-10-09T17:31:03;97331.66;;;17.89;95.10
13434;BME280;6789;47.678;9.158;2023-10-09T17:35:58;97334.81;;;17.81;95.65
13434;BME280;6789;47.678;9.158;2023-10-09T17:40:53;97331.53;;;17.69;96.74
13434;BME280;6789;47.678;9.158;2023-10-09T17:46:02;97317.66;;;17.57;96.44
13434;BME280;6789;47.678;9.158;2023-10-09T17:50:57;97324.50;;;17.53;96.84
13434;BME280;6789;47.678;9.158;2023-10-09T17:55:52;97331.06;;;17.46;97.12
13434;BME280;6789;47.678;9.158;2023-10-09T18:00:45;97342.16;;;17.43;97.59
13434;BME280;6789;47.678;9.158;2023-10-09T18:05:51;97329.91;;;17.37;98.51
13434;BME280;6789;47.678;9.158;2023-10-09T18:10:43;97330.69;;;17.32;99.29
13434;BME280;6789;47.678;9.158;2023-10-09T18:15:37;97341.31;;;17.32;99.92
13434;BME280;6789;47.678;9.158;2023-10-09T18:20:30;97339.13;;;17.29;99.59
13434;BME280;6789;47.678;9.158;2023-10-09T18:25:25;97332.09;;;17.18;100.00
13434;BME280;6789;47.678;9.158;2023-10-09T18:30:17;97337.38;;;17.14;100.00
13434;BME280;6789;47.678;9.158;2023-10-09T18:35:11;97346.81;;;17.05;100.00
13434;BME280;6789;47.678;9.158;2023-10-09T18:40:10;97352.66;;;17.07;100.00
13434;BME280;6789;47.678;9.158;2023-10-09T18:45:07;97340.84;;;16.93;100.00
13434;BME280;6789;47.678;9.158;2023-10-09T18:50:01;97344.22;;;16.88;100.00
13434;BME280;6789;47.678;9.158;2023-10-09T18:54:53;97343.56;;;16.76;100.00
13434;BME280;6789;47.678;9.158;2023-10-09T18:59:51;97341.84;;;16.65;100.00
13434;BME280;6789;47.678;9.158;2023-10-09T19:04:43;97339.63;;;16.57;100.00
13434;BME280;6789;47.678;9.158;2023-10-09T19:09:36;97330.28;;;16.50;100.00
13434;BME280;6789;47.678;9.158;2023-10-09T19:14:31;97333.19;;;16.48;100.00
13434;BME280;6789;47.678;9.158;2023-10-09T19:19:26;97336.63;;;16.49;100.00
13434;BME280;6789;47.678;9.158;2023-10-09T19:24:34;97324.41;;;16.48;100.00
13434;BME280;6789;47.678;9.158;2023-10-09T19:29:26;97323.88;;;16.46;100.00
13434;BME280;6789;47.678;9.158;2023-10-09T19:34:19;97327.56;;;16.45;100.00
13434;BME280;6789;47.678;9.158;2023-10-09T19:39:29;97332.94;;;16.50;100.00
13434;BME280;6789;47.678;9.158;2023-10-09T19:44:23;97328.97;;;16.52;100.00
13434;BME280;6789;47.678;9.158;2023-10-09T19:49:24;97334.47;;;16.46;100.00
13434;BME280;6789;47.678;9.158;2023-10-09T19:54:17;97353.84;;;16.51;100.00
13434;BME280;6789;47.678;9.158;2023-10-09T19:59:22;97346.09;;;16.45;100.00
13434;BME280;6789;47.678;9.158;2023-10-09T20:04:14;97356.13;;;16.43;100.00
13434;BME280;6789;47.678;9.158;2023-10-09T20:09:07;97360.47;;;16.33;100.00
13434;BME280;6789;47.678;9.158;2023-10-09T20:14:05;97365.94;;;16.26;100.00
13434;BME280;6789;47.678;9.158;2023-10-09T20:18:57;97378.03;;;16.22;100.00
13434;BME280;6789;47.678;9.158;2023-10-09T20:23:49;97373.97;;;16.15;100.00
13434;BME280;6789;47.678;9.158;2023-10-09T20:28:45;97380.56;;;16.12;100.00
13434;BME280;6789;47.678;9.158;2023-10-09T20:33:38;97379.34;;;16.03;100.00
13434;BME280;6789;47.678;9.158;2023-10-09T20:38:32;97380.41;;;16.02;100.00
13434;BME280;6789;47.678;9.158;2023-10-09T20:43:24;97370.31;;;15.99;100.00
13434;BME280;6789;47.678;9.158;2023-10-09T20:48:19;97377.59;;;15.92;100.00
13434;BME280;6789;47.678;9.158;2023-10-09T20:53:11;97375.66;;;15.88;100.00
13434;BME280;6789;47.678;9.158;2023-10-09T20:58:05;97376.72;;;15.87;100.00
13434;BME280;6789;47.678;9.158;2023-10-09T21:03:00;97366.31;;;15.80;100.00
13434;BME280;6789;47.678;9.158;2023-10-09T21:07:54;97369.19;;;15.79;100.00
13434;BME280;6789;47.678;9.158;2023-10-09T21:12:49;97370.22;;;15.78;100.00
13434;BME280;6789;47.678;9.158;2023-10-09T21:17:42;97364.69;;;15.79;100.00
13434;BME280;6789;47.678;9.158;2023-10-09T21:22:37;97359.66;;;15.78;100.00
13434;BME280;6789;47.678;9.158;2023-10-09T21:27:33;97350.81;;;15.72;100.00
13434;BME280;6789;47.678;9.158;2023-10-09T21:32:25;97358.16;;;15.66;100.00
13434;BME280;6789;47.678;9.158;2023-10-09T21:37:22;97355.31;;;15.72;100.00
13434;BME280;6789;47.678;9.158;2023-10-09T21:42:14;97351.78;;;15.67;100.00
13434;BME280;6789;47.678;9.158;2023-10-09T21:47:06;97356.38;;;15.71;100.00
13434;BME280;6789;47.678;9.158;2023-10-09T21:52:01;97352.84;;;15.66;100.00
13434;BME280;6789;47.678;9.158;2023-10-09T21:56:53;97353.00;;;15.59;100.00
13434;BME280;6789;47.678;9.158;2023-10-09T22:01:50;97358.09;;;15.33;100.00
13434;BME280;6789;47.678;9.158;2023-10-09T22:06:43;97362.56;;;15.32;100.00
13434;BME280;6789;47.678;9.158;2023-10-09T22:11:35;97363.00;;;15.13;100.00
13434;BME280;6789;47.678;9.158;2023-10-09T22:16:27;97365.59;;;14.97;100.00
13434;BME280;6789;47.678;9.158;2023-10-09T22:21:19;97366.34;;;14.81;100.00
13434;BME280;6789;47.678;9.158;2023-10-09T22:26:12;97366.94;;;14.71;100.00
13434;BME280;6789;47.678;9.158;2023-10-09T22:31:10;97377.06;;;14.63;100.00
13434;BME280;6789;47.678;9.158;2023-10-09T22:36:07;97368.25;;;14.57;100.00
13434;BME280;6789;47.678;9.158;2023-10-09T22:41:05;97374.44;;;14.51;100.00
13434;BME280;6789;47.678;9.158;2023-10-09T22:46:06;97371.38;;;14.43;100.00
13434;BME280;6789;47.678;9.158;2023-10-09T22:50:59;97365.75;;;14.39;100.00
13434;BME280;6789;47.678;9.158;2023-10-09T22:56:01;97365.28;;;14.42;100.00
13434;BME280;6789;47.678;9.158;2023-10-09T23:00:56;97366.09;;;14.43;100.00
13434;BME280;6789;47.678;9.158;2023-10-09T23:06:03;97362.09;;;14.40;100.00
13434;BME280;6789;47.678;9.158;2023-10-09T23:11:03;97362.19;;;14.34;100.00
13434;BME280;6789;47.678;9.158;2023-10-09T23:16:15;97361.84;;;14.30;100.00
13434;BME280;6789;47.678;9.158;2023-10-09T23:21:09;97357.41;;;14.31;100.00
13434;BME280;6789;47.678;9.158;2023-10-09T23:26:20;97367.38;;;14.29;100.00
13434;BME280;6789;47.678;9.158;2023-10-09T23:31:20;97380.41;;;14.35;100.00
13434;BME280;6789;47.678;9.158;2023-10-09T23:36:18;97388.81;;;14.32;100.00
13434;BME280;6789;47.678;9.158;2023-10-09T23:41:18;97380.91;;;14.32;100.00
13434;BME280;6789;47.678;9.158;2023-10-09T23:46:14;97383.66;;;14.15;100.00
13434;BME280;6789;47.678;9.158;2023-10-09T23:51:10;97381.22;;;14.02;100.00
13434;BME280;6789;47.678;9.158;2023-10-09T23:56:09;97382.81;;;13.91;100.00
